Terminal Aerodrome Forecast
Issued by NWS Huntsville, AL

Home | Current Version | Previous Version | Text Only | Print | Product List | Glossary On
Versions: 1 2 3 4 5 6 7 8 9 10 11 12 13
000
FTUS44 KHUN 170538
TAFHSV
TAF
KHSV 170538Z 1706/1806 13007KT P6SM BKN250
     FM171400 14010G15KT P6SM SCT200
     FM180000 12007KT P6SM SCT040 BKN250=

USA.gov is the U.S. government's official web portal to all federal, state and local government web resources and services.